createdAt,value
2018-11-03T00:02:05.431Z,42.07
2018-11-03T00:04:37.346Z,44.00
2018-11-03T00:07:09.150Z,45.07
2018-11-03T00:09:41.009Z,43.63
2018-11-03T00:12:12.783Z,48.23
2018-11-03T00:14:44.625Z,46.00
2018-11-03T00:17:16.482Z,47.20
2018-11-03T00:19:48.501Z,54.33
2018-11-03T00:22:20.293Z,44.40
2018-11-03T00:24:52.440Z,42.33
2018-11-03T00:27:24.768Z,43.67
2018-11-03T00:29:56.743Z,47.20
2018-11-03T00:32:30.101Z,45.23
2018-11-03T00:35:02.534Z,46.23
2018-11-03T00:37:34.506Z,37.97
2018-11-03T00:40:07.675Z,40.90
2018-11-03T00:42:39.715Z,43.40
2018-11-03T00:45:13.099Z,39.53
2018-11-03T00:47:45.379Z,42.77
2018-11-03T00:50:17.568Z,40.30
2018-11-03T00:52:49.480Z,41.40
2018-11-03T00:55:21.314Z,43.43
2018-11-03T00:57:53.736Z,41.63
2018-11-03T01:00:25.669Z,49.03
2018-11-03T01:02:57.771Z,48.80
2018-11-03T01:05:29.718Z,38.60
2018-11-03T01:08:01.787Z,43.67
2018-11-03T01:10:33.627Z,41.43
2018-11-03T01:13:05.618Z,43.13
2018-11-03T01:15:37.441Z,43.03
2018-11-03T01:18:09.264Z,44.20
2018-11-03T01:20:41.135Z,42.57
2018-11-03T01:23:12.929Z,42.80
2018-11-03T01:25:44.732Z,42.77
2018-11-03T01:28:16.527Z,46.13
2018-11-03T01:30:48.418Z,38.53
2018-11-03T01:33:20.250Z,38.93
2018-11-03T01:35:52.065Z,36.50
2018-11-03T01:38:26.415Z,42.43
2018-11-03T01:40:58.267Z,40.77
2018-11-03T01:43:30.013Z,46.40
2018-11-03T01:46:01.904Z,45.27
2018-11-03T01:48:33.729Z,41.20
2018-11-03T01:51:05.508Z,41.50
2018-11-03T01:53:37.307Z,41.53
2018-11-03T01:56:09.128Z,42.73
2018-11-03T01:58:40.961Z,43.17
2018-11-03T02:01:12.784Z,44.20
2018-11-03T02:03:44.582Z,37.10
2018-11-03T02:06:16.441Z,36.83
2018-11-03T02:08:48.234Z,34.97
2018-11-03T02:11:20.070Z,46.50
2018-11-03T02:13:54.035Z,37.00
2018-11-03T02:16:25.841Z,36.37
2018-11-03T02:18:57.643Z,39.83
2018-11-03T02:21:29.449Z,39.60
2018-11-03T02:24:01.235Z,35.87
2018-11-03T02:26:33.070Z,41.10
2018-11-03T02:29:04.864Z,40.37
2018-11-03T02:31:36.699Z,44.13
2018-11-03T02:34:08.534Z,41.40
2018-11-03T02:36:42.647Z,37.00
2018-11-03T02:39:14.441Z,41.77
2018-11-03T02:41:46.260Z,36.70
2018-11-03T02:44:18.043Z,45.53
2018-11-03T02:46:49.866Z,41.03
2018-11-03T02:49:21.910Z,37.50
2018-11-03T02:51:53.802Z,35.50
2018-11-03T02:54:25.593Z,39.57
2018-11-03T02:56:57.409Z,46.53
2018-11-03T02:59:29.199Z,38.67
2018-11-03T03:02:01.029Z,37.87
2018-11-03T03:04:32.817Z,40.80
2018-11-03T03:07:04.628Z,40.80
2018-11-03T03:09:36.450Z,38.70
2018-11-03T03:12:08.572Z,43.83
2018-11-03T03:14:40.357Z,37.90
2018-11-03T03:17:12.169Z,37.83
2018-11-03T03:19:43.965Z,42.17
2018-11-03T03:22:15.785Z,36.47
2018-11-03T03:24:47.634Z,38.03
2018-11-03T03:27:19.484Z,45.77
2018-11-03T03:29:51.285Z,40.80
2018-11-03T03:32:23.184Z,37.30
2018-11-03T03:34:54.969Z,41.90
2018-11-03T03:37:26.854Z,47.40
2018-11-03T03:39:58.754Z,36.97
2018-11-03T03:42:30.702Z,42.80
2018-11-03T03:45:02.860Z,41.50
2018-11-03T03:47:34.635Z,39.77
2018-11-03T03:50:06.938Z,38.63
2018-11-03T03:52:38.967Z,36.67
2018-11-03T03:55:10.992Z,47.63
2018-11-03T03:57:42.794Z,42.13
2018-11-03T04:00:14.616Z,41.30
2018-11-03T04:02:46.469Z,36.70
2018-11-03T04:05:18.260Z,48.10
2018-11-03T04:07:50.108Z,45.73
2018-11-03T04:10:24.327Z,44.90
2018-11-03T04:12:56.158Z,44.63
2018-11-03T04:15:28.380Z,40.23
2018-11-03T04:18:00.220Z,38.90
2018-11-03T04:20:32.022Z,41.47
2018-11-03T04:23:03.843Z,43.10
2018-11-03T04:25:35.643Z,39.47
2018-11-03T04:28:07.472Z,39.40
2018-11-03T04:30:39.344Z,39.87
2018-11-03T04:33:11.086Z,39.77
2018-11-03T04:35:42.879Z,35.93
2018-11-03T04:38:14.707Z,40.07
2018-11-03T04:40:46.502Z,44.47
2018-11-03T04:43:18.315Z,37.20
2018-11-03T04:45:50.085Z,40.47
2018-11-03T04:48:21.901Z,36.00
2018-11-03T04:50:53.716Z,35.47
2018-11-03T04:53:25.561Z,39.43
2018-11-03T04:55:57.429Z,45.60
2018-11-03T04:58:29.251Z,36.83
2018-11-03T05:01:01.179Z,39.80
2018-11-03T05:03:32.994Z,37.03
2018-11-03T05:06:04.809Z,39.63
2018-11-03T05:08:36.609Z,36.60
2018-11-03T05:11:08.435Z,37.20
2018-11-03T05:13:43.315Z,36.87
2018-11-03T05:16:15.123Z,35.80
2018-11-03T05:18:46.967Z,31.17
2018-11-03T05:21:18.852Z,38.70
2018-11-03T05:23:50.595Z,40.10
2018-11-03T05:26:22.396Z,37.50
2018-11-03T05:28:54.238Z,45.63
2018-11-03T05:31:26.238Z,39.57
2018-11-03T05:33:58.204Z,41.73
2018-11-03T05:36:29.996Z,41.30
2018-11-03T05:39:01.853Z,29.83
2018-11-03T05:41:33.685Z,49.37
2018-11-03T05:44:05.511Z,36.80
2018-11-03T05:46:37.355Z,35.13
2018-11-03T05:49:09.485Z,34.60
2018-11-03T05:51:41.329Z,35.70
2018-11-03T05:54:13.143Z,39.03
2018-11-03T05:56:44.939Z,35.90
2018-11-03T05:59:16.767Z,40.30
2018-11-03T06:01:48.885Z,34.70
2018-11-03T06:04:22.634Z,39.70
2018-11-03T06:06:54.490Z,37.10
2018-11-03T06:09:26.290Z,45.00
2018-11-03T06:11:58.266Z,31.40
2018-11-03T06:14:30.082Z,37.43
2018-11-03T06:17:01.856Z,33.33
2018-11-03T06:19:33.666Z,30.50
2018-11-03T06:22:05.465Z,28.37
2018-11-03T06:24:37.368Z,33.50
2018-11-03T06:27:09.210Z,34.33
2018-11-03T06:29:41.049Z,27.83
2018-11-03T06:32:12.856Z,41.57
2018-11-03T06:34:44.692Z,32.50
2018-11-03T06:37:19.332Z,31.10
2018-11-03T06:39:51.164Z,32.10
2018-11-03T06:42:22.937Z,32.17
2018-11-03T06:44:54.770Z,35.47
2018-11-03T06:47:26.704Z,32.73
2018-11-03T06:50:00.280Z,37.20
2018-11-03T06:52:30.304Z,33.03
2018-11-03T06:55:02.176Z,31.77
2018-11-03T06:57:34.080Z,35.60
2018-11-03T07:00:07.457Z,31.60
2018-11-03T07:02:39.282Z,37.30
2018-11-03T07:05:11.185Z,35.27
2018-11-03T07:07:42.966Z,35.43
2018-11-03T07:10:14.797Z,34.90
2018-11-03T07:12:46.805Z,37.70
2018-11-03T07:15:18.433Z,31.53
2018-11-03T07:17:50.263Z,28.87
2018-11-03T07:20:22.091Z,30.90
2018-11-03T07:22:53.976Z,28.80
2018-11-03T07:25:25.799Z,33.13
2018-11-03T07:27:57.670Z,30.70
2018-11-03T07:30:29.500Z,29.47
2018-11-03T07:33:01.283Z,28.43
2018-11-03T07:35:33.155Z,30.47
2018-11-03T07:38:05.026Z,30.10
2018-11-03T07:40:36.885Z,36.00
2018-11-03T07:43:08.629Z,31.80
2018-11-03T07:45:40.433Z,35.53
2018-11-03T07:48:12.413Z,28.70
2018-11-03T07:50:44.101Z,25.03
2018-11-03T07:53:15.886Z,25.30
2018-11-03T07:55:47.724Z,32.60
2018-11-03T07:58:19.751Z,30.63
2018-11-03T08:00:51.677Z,28.20
2018-11-03T08:03:23.935Z,39.30
2018-11-03T08:05:55.852Z,30.03
2018-11-03T08:08:27.794Z,32.93
2018-11-03T08:10:59.640Z,35.00
2018-11-03T08:13:31.457Z,28.87
2018-11-03T08:16:03.456Z,30.13
2018-11-03T08:18:35.115Z,30.43
2018-11-03T08:21:07.060Z,29.17
2018-11-03T08:23:38.978Z,30.13
2018-11-03T08:26:10.881Z,30.70
2018-11-03T08:28:42.706Z,31.77
2018-11-03T08:31:14.570Z,27.90
2018-11-03T08:33:46.607Z,31.80
2018-11-03T08:36:20.206Z,30.77
2018-11-03T08:38:52.004Z,35.83
2018-11-03T08:41:23.840Z,32.37
2018-11-03T08:43:57.841Z,34.87
2018-11-03T08:46:29.725Z,37.30
2018-11-03T08:49:01.622Z,28.70
2018-11-03T08:51:33.430Z,29.83
2018-11-03T08:54:05.229Z,38.43
2018-11-03T08:56:37.152Z,33.43
2018-11-03T08:59:09.397Z,27.33
2018-11-03T09:01:41.299Z,31.50
2018-11-03T09:04:13.117Z,31.73
2018-11-03T09:06:45.051Z,31.83
2018-11-03T09:09:16.874Z,31.03
2018-11-03T09:11:48.814Z,30.40
2018-11-03T09:14:20.734Z,30.57
2018-11-03T09:16:52.852Z,33.47
2018-11-03T09:19:24.724Z,38.37
2018-11-03T09:21:56.695Z,31.63
2018-11-03T09:24:28.488Z,32.73
2018-11-03T09:27:00.415Z,33.67
2018-11-03T09:29:32.255Z,35.23
2018-11-03T09:32:04.176Z,39.17
2018-11-03T09:34:36.104Z,35.50
2018-11-03T09:37:08.571Z,33.87
2018-11-03T09:39:40.441Z,35.03
2018-11-03T09:42:12.415Z,49.30
2018-11-03T09:44:44.259Z,34.27
2018-11-03T09:47:16.131Z,31.43
2018-11-03T09:49:47.975Z,34.70
2018-11-03T09:52:19.966Z,40.67
2018-11-03T09:54:51.811Z,32.80
2018-11-03T09:57:23.716Z,31.97
2018-11-03T09:59:55.607Z,39.00
2018-11-03T10:02:27.487Z,32.73
2018-11-03T10:04:59.295Z,31.87
2018-11-03T10:07:31.169Z,33.33
2018-11-03T10:10:03.071Z,31.60
2018-11-03T10:12:34.950Z,33.93
2018-11-03T10:15:06.916Z,31.57
2018-11-03T10:17:38.826Z,39.00
2018-11-03T10:20:11.278Z,38.03
2018-11-03T10:22:43.184Z,39.57
2018-11-03T10:25:16.901Z,42.17
2018-11-03T10:27:49.197Z,35.00
2018-11-03T10:30:21.003Z,34.67
2018-11-03T10:32:52.835Z,36.23
2018-11-03T10:35:24.804Z,36.13
2018-11-03T10:37:56.716Z,45.20
2018-11-03T10:40:28.514Z,39.60
2018-11-03T10:43:00.385Z,36.80
2018-11-03T10:45:32.336Z,37.07
2018-11-03T10:48:04.278Z,43.50
2018-11-03T10:50:36.174Z,37.27
2018-11-03T10:53:08.420Z,37.63
2018-11-03T10:55:40.415Z,40.70
2018-11-03T10:58:12.282Z,34.13
2018-11-03T11:01:01.263Z,37.03
2018-11-03T11:03:50.139Z,38.60
2018-11-03T11:06:39.088Z,36.80
2018-11-03T11:09:28.263Z,36.83
2018-11-03T11:12:17.536Z,36.40
2018-11-03T11:14:49.438Z,38.63
2018-11-03T11:17:21.444Z,39.10
2018-11-03T11:19:53.520Z,35.07
2018-11-03T11:22:25.415Z,38.17
2018-11-03T11:24:57.608Z,34.23
2018-11-03T11:27:29.402Z,42.93
2018-11-03T11:30:01.409Z,41.80
2018-11-03T11:32:33.573Z,32.03
2018-11-03T11:35:07.295Z,32.47
2018-11-03T11:37:39.991Z,33.63
2018-11-03T11:40:11.845Z,33.73
2018-11-03T11:42:43.848Z,32.77
2018-11-03T11:45:15.840Z,32.77
2018-11-03T11:47:47.739Z,31.90
2018-11-03T11:50:19.866Z,36.03
2018-11-03T11:52:51.949Z,33.10
2018-11-03T11:55:23.838Z,39.43
2018-11-03T11:57:55.744Z,31.07
2018-11-03T12:00:27.727Z,31.60
2018-11-03T12:02:59.658Z,44.10
2018-11-03T12:05:31.643Z,39.40
2018-11-03T12:08:03.547Z,36.60
2018-11-03T12:10:35.614Z,37.03
2018-11-03T12:13:07.748Z,45.90
2018-11-03T12:15:39.661Z,40.10
2018-11-03T12:18:11.513Z,45.60
2018-11-03T12:20:43.474Z,47.87
2018-11-03T12:23:15.550Z,43.97
2018-11-03T12:25:47.499Z,52.03
2018-11-03T12:28:19.473Z,43.57
2018-11-03T12:30:51.335Z,46.60
2018-11-03T12:33:23.235Z,47.30
2018-11-03T12:35:55.556Z,45.77
2018-11-03T12:38:27.749Z,42.90
2018-11-03T12:40:59.811Z,49.37
2018-11-03T12:43:31.558Z,44.83
2018-11-03T12:46:03.595Z,47.63
2018-11-03T12:48:35.732Z,46.00
2018-11-03T12:51:08.231Z,52.83
2018-11-03T12:53:43.276Z,42.90
2018-11-03T12:56:15.315Z,44.07
2018-11-03T12:58:47.362Z,44.30
2018-11-03T13:01:20.129Z,43.57
2018-11-03T13:03:54.104Z,47.70
2018-11-03T13:06:26.028Z,50.80
2018-11-03T13:08:57.971Z,49.10
2018-11-03T13:11:29.809Z,39.83
2018-11-03T13:14:01.715Z,45.40
2018-11-03T13:16:33.618Z,48.80
2018-11-03T13:19:05.487Z,44.93
2018-11-03T13:21:37.376Z,47.23
2018-11-03T13:24:09.313Z,46.50
2018-11-03T13:26:41.189Z,44.10
2018-11-03T13:29:13.043Z,50.20
2018-11-03T13:31:44.938Z,44.80
2018-11-03T13:34:16.728Z,44.77
2018-11-03T13:36:48.675Z,45.40
2018-11-03T13:39:20.505Z,47.40
2018-11-03T13:41:52.398Z,49.23
2018-11-03T13:44:24.178Z,43.60
2018-11-03T13:46:56.053Z,37.43
2018-11-03T13:49:27.992Z,40.73
2018-11-03T13:51:59.915Z,39.97
2018-11-03T13:54:31.754Z,36.73
2018-11-03T13:57:03.808Z,41.50
2018-11-03T13:59:35.577Z,34.53
2018-11-03T14:02:07.443Z,36.17
2018-11-03T14:04:39.266Z,38.27
2018-11-03T14:07:11.203Z,36.40
2018-11-03T14:09:42.952Z,43.63
2018-11-03T14:12:14.806Z,35.80
2018-11-03T14:14:46.602Z,38.80
2018-11-03T14:17:18.590Z,33.60
2018-11-03T14:19:50.354Z,39.20
2018-11-03T14:22:22.378Z,40.30
2018-11-03T14:24:54.205Z,45.77
2018-11-03T14:27:26.065Z,35.50
2018-11-03T14:29:57.916Z,39.13
2018-11-03T14:32:29.709Z,47.17
2018-11-03T14:35:01.548Z,37.80
2018-11-03T14:37:33.393Z,30.90
2018-11-03T14:40:05.270Z,32.83
2018-11-03T14:42:37.113Z,30.23
2018-11-03T14:45:10.450Z,39.43
2018-11-03T14:47:42.372Z,32.43
2018-11-03T14:50:14.201Z,34.50
2018-11-03T14:52:46.147Z,44.97
2018-11-03T14:55:17.976Z,31.17
2018-11-03T14:57:49.817Z,35.07
2018-11-03T15:00:21.660Z,37.07
2018-11-03T15:02:53.647Z,36.80
2018-11-03T15:05:25.499Z,35.40
2018-11-03T15:07:59.603Z,35.00
2018-11-03T15:10:31.528Z,35.83
2018-11-03T15:13:03.315Z,37.43
2018-11-03T15:15:35.183Z,41.10
2018-11-03T15:18:07.112Z,43.53
2018-11-03T15:20:38.957Z,44.27
2018-11-03T15:23:10.898Z,40.60
2018-11-03T15:25:42.722Z,40.83
2018-11-03T15:28:14.639Z,41.80
2018-11-03T15:30:46.498Z,42.33
2018-11-03T15:33:18.406Z,43.80
2018-11-03T15:35:50.281Z,42.73
2018-11-03T15:38:22.106Z,46.73
2018-11-03T15:40:53.900Z,52.13
2018-11-03T15:43:25.815Z,49.27
2018-11-03T15:45:57.557Z,45.50
2018-11-03T15:48:29.405Z,43.83
2018-11-03T15:51:01.281Z,48.70
2018-11-03T15:53:33.121Z,49.97
2018-11-03T15:56:05.040Z,49.13
2018-11-03T15:58:36.869Z,54.30
2018-11-03T16:01:08.727Z,60.57
2018-11-03T16:03:41.076Z,63.53
2018-11-03T16:06:15.489Z,55.80
2018-11-03T16:08:47.395Z,58.30
2018-11-03T16:11:19.208Z,67.93
2018-11-03T16:13:51.037Z,69.47
2018-11-03T16:16:22.882Z,63.07
2018-11-03T16:18:57.744Z,70.27
2018-11-03T16:21:29.594Z,59.70
2018-11-03T16:24:01.454Z,59.43
2018-11-03T16:26:33.447Z,55.67
2018-11-03T16:29:05.237Z,61.80
2018-11-03T16:31:37.040Z,65.30
2018-11-03T16:34:08.895Z,60.43
2018-11-03T16:36:40.721Z,62.83
2018-11-03T16:39:12.671Z,70.70
2018-11-03T16:41:44.382Z,61.93
2018-11-03T16:44:16.262Z,91.00
2018-11-03T16:46:48.161Z,66.23
2018-11-03T16:49:23.278Z,75.73
2018-11-03T16:51:57.021Z,73.17
2018-11-03T16:54:32.213Z,65.50
2018-11-03T16:57:04.064Z,77.83
2018-11-03T16:59:35.906Z,67.53
2018-11-03T17:02:07.967Z,68.40
2018-11-03T17:04:39.800Z,78.93
2018-11-03T17:07:11.663Z,68.27
2018-11-03T17:09:43.555Z,68.73
2018-11-03T17:12:15.449Z,70.10
2018-11-03T17:14:47.339Z,63.00
2018-11-03T17:17:19.150Z,70.17
2018-11-03T17:19:50.984Z,73.63
2018-11-03T17:22:22.811Z,79.03
2018-11-03T17:24:54.708Z,74.57
2018-11-03T17:27:26.498Z,74.77
2018-11-03T17:29:58.341Z,83.60
2018-11-03T17:32:30.348Z,74.57
2018-11-03T17:35:02.111Z,70.77
2018-11-03T17:37:33.942Z,63.13
2018-11-03T17:40:06.463Z,73.37
2018-11-03T17:42:38.276Z,71.40
2018-11-03T17:45:11.575Z,77.00
2018-11-03T17:47:43.406Z,79.90
2018-11-03T17:50:15.414Z,80.63
2018-11-03T17:52:47.222Z,74.90
2018-11-03T17:55:19.140Z,72.43
2018-11-03T17:57:50.960Z,74.53
2018-11-03T18:00:25.217Z,71.27
2018-11-03T18:02:56.838Z,76.80
2018-11-03T18:05:28.798Z,66.93
2018-11-03T18:08:00.642Z,74.53
2018-11-03T18:10:32.574Z,74.10
2018-11-03T18:13:04.417Z,78.10
2018-11-03T18:15:36.251Z,68.93
2018-11-03T18:18:08.183Z,75.63
2018-11-03T18:20:38.646Z,72.30
2018-11-03T18:23:10.388Z,74.07
2018-11-03T18:25:42.286Z,80.33
2018-11-03T18:28:14.139Z,72.17
2018-11-03T18:30:46.050Z,75.97
2018-11-03T18:33:17.969Z,76.13
2018-11-03T18:35:49.759Z,67.80
2018-11-03T18:38:21.572Z,73.10
2018-11-03T18:40:53.418Z,67.60
2018-11-03T18:43:25.307Z,74.87
2018-11-03T18:45:57.190Z,74.97
2018-11-03T18:48:29.066Z,69.00
2018-11-03T18:51:00.931Z,72.60
2018-11-03T18:53:32.834Z,70.30
2018-11-03T18:56:04.714Z,74.33
2018-11-03T18:58:36.552Z,74.43
2018-11-03T19:01:08.585Z,73.40
2018-11-03T19:03:40.410Z,81.47
2018-11-03T19:06:12.291Z,78.43
2018-11-03T19:08:44.119Z,73.80
2018-11-03T19:11:15.945Z,69.47
2018-11-03T19:13:47.879Z,68.00
2018-11-03T19:16:19.725Z,71.57
2018-11-03T19:18:51.781Z,74.13
2018-11-03T19:21:23.951Z,69.33
2018-11-03T19:23:56.026Z,78.40
2018-11-03T19:26:28.057Z,73.53
2018-11-03T19:29:00.121Z,72.63
2018-11-03T19:31:32.330Z,71.93
2018-11-03T19:34:04.520Z,67.23
2018-11-03T19:36:36.679Z,68.00
2018-11-03T19:39:10.520Z,69.40
2018-11-03T19:41:42.744Z,63.50
2018-11-03T19:44:14.759Z,64.67
2018-11-03T19:46:46.920Z,69.77
2018-11-03T19:49:18.976Z,66.23
2018-11-03T19:51:51.162Z,59.03
2018-11-03T19:54:23.205Z,64.70
2018-11-03T19:56:55.371Z,53.40
2018-11-03T19:59:27.186Z,64.20
2018-11-03T20:01:59.116Z,67.97
2018-11-03T20:04:30.953Z,53.57
2018-11-03T20:07:02.801Z,57.83
2018-11-03T20:09:34.602Z,50.70
2018-11-03T20:12:06.724Z,62.17
2018-11-03T20:14:39.550Z,50.03
2018-11-03T20:17:11.571Z,54.60
2018-11-03T20:19:43.444Z,57.87
2018-11-03T20:22:15.372Z,51.67
2018-11-03T20:24:47.216Z,49.77
2018-11-03T20:27:19.086Z,43.30
2018-11-03T20:29:50.948Z,47.13
2018-11-03T20:32:22.795Z,47.00
2018-11-03T20:34:54.669Z,48.80
2018-11-03T20:37:26.494Z,47.50
2018-11-03T20:39:58.356Z,54.50
2018-11-03T20:42:30.239Z,48.60
2018-11-03T20:45:02.185Z,51.57
2018-11-03T20:47:34.045Z,53.80
2018-11-03T20:50:06.541Z,49.70
2018-11-03T20:52:38.445Z,47.67
2018-11-03T20:55:10.918Z,50.60
2018-11-03T20:57:42.954Z,47.10
2018-11-03T21:00:22.785Z,54.47
2018-11-03T21:02:54.656Z,59.70
2018-11-03T21:05:26.485Z,49.20
2018-11-03T21:07:58.361Z,54.57
2018-11-03T21:10:30.158Z,60.70
2018-11-03T21:13:02.017Z,66.43
2018-11-03T21:15:33.868Z,54.93
2018-11-03T21:18:05.749Z,63.00
2018-11-03T21:20:37.826Z,63.53
2018-11-03T21:23:09.710Z,57.10
2018-11-03T21:25:41.578Z,62.90
2018-11-03T21:28:13.481Z,58.67
2018-11-03T21:30:45.363Z,61.40
2018-11-03T21:33:17.272Z,59.07
2018-11-03T21:35:49.096Z,59.30
2018-11-03T21:38:21.084Z,59.73
2018-11-03T21:40:52.825Z,57.53
2018-11-03T21:43:24.689Z,53.20
2018-11-03T21:45:56.643Z,47.67
2018-11-03T21:48:28.486Z,52.77
2018-11-03T21:51:00.327Z,61.33
2018-11-03T21:53:32.213Z,49.87
2018-11-03T21:56:04.124Z,56.37
2018-11-03T21:58:35.951Z,56.37
2018-11-03T22:01:07.874Z,49.57
2018-11-03T22:03:39.682Z,52.07
2018-11-03T22:06:11.515Z,54.00
2018-11-03T22:08:43.349Z,56.40
2018-11-03T22:11:15.173Z,52.53
2018-11-03T22:13:47.009Z,61.60
2018-11-03T22:16:18.862Z,64.17
2018-11-03T22:18:50.937Z,56.13
2018-11-03T22:21:22.777Z,59.70
2018-11-03T22:23:54.704Z,61.73
2018-11-03T22:26:26.504Z,55.63
2018-11-03T22:28:58.354Z,59.73
2018-11-03T22:31:30.659Z,54.43
2018-11-03T22:34:02.586Z,60.67
2018-11-03T22:36:34.370Z,52.37
2018-11-03T22:39:07.965Z,60.60
2018-11-03T22:41:39.798Z,51.37
2018-11-03T22:44:11.653Z,60.37
2018-11-03T22:46:43.447Z,55.17
2018-11-03T22:49:15.598Z,54.53
2018-11-03T22:51:47.504Z,58.10
2018-11-03T22:54:19.252Z,50.57
2018-11-03T22:56:51.151Z,57.87
2018-11-03T22:59:23.049Z,52.63
2018-11-03T23:01:54.773Z,54.30
2018-11-03T23:04:26.572Z,53.90
2018-11-03T23:06:58.401Z,55.03
2018-11-03T23:09:30.199Z,56.90
2018-11-03T23:12:02.007Z,55.50
2018-11-03T23:14:33.882Z,52.90
2018-11-03T23:17:05.712Z,60.93
2018-11-03T23:19:38.083Z,52.87
2018-11-03T23:22:10.499Z,55.03
2018-11-03T23:24:42.208Z,64.23
2018-11-03T23:27:14.020Z,58.30
2018-11-03T23:29:46.014Z,61.03
2018-11-03T23:32:17.755Z,64.17
2018-11-03T23:34:49.597Z,64.53
2018-11-03T23:37:21.405Z,62.40
2018-11-03T23:39:53.217Z,64.83
2018-11-03T23:42:25.039Z,57.63
2018-11-03T23:44:56.902Z,64.77
2018-11-03T23:47:28.642Z,62.87
2018-11-03T23:50:00.482Z,70.40
2018-11-03T23:52:35.921Z,64.30
2018-11-03T23:55:07.752Z,60.03
2018-11-03T23:57:39.552Z,57.33
